Time;durP1;ratioP1;P1;durP2;ratioP2;P2;SDS_P1;SDS_P2;PMS_P1;PMS_P2;Temp;Humidity;BMP_temperature;BMP_pressure;BME280_temperature;BME280_humidity;BME280_pressure;Samples;Min_cycle;Max_cycle;Signal;HPM_P1;HPM_P2
2023/09/02 00:00:45;;;;;;;2.42;2.05;;;;;;;;;;5070644;28;20044;-69
2023/09/02 00:03:11;;;;;;;2.40;2.05;;;;;;;;;;5071044;28;20021;-69
2023/09/02 00:05:37;;;;;;;5.65;2.53;;;;;;;;;;5073993;28;20054;-68
2023/09/02 00:08:03;;;;;;;3.22;2.38;;;;;;;;;;5074030;28;20031;-68
2023/09/02 00:10:29;;;;;;;4.03;2.55;;;;;;;;;;5073141;28;20029;-68
2023/09/02 00:12:55;;;;;;;2.92;2.33;;;;;;;;;;5074021;28;20024;-68
2023/09/02 00:15:21;;;;;;;2.78;2.30;;;;;;;;;;5055451;28;20023;-68
2023/09/02 00:17:47;;;;;;;3.92;2.10;;;;;;;;;;5073510;28;20374;-68
2023/09/02 00:20:13;;;;;;;3.08;2.10;;;;;;;;;;5073368;28;20492;-70
2023/09/02 00:22:41;;;;;;;2.97;2.30;;;;;;;;;;5073403;28;20016;-68
2023/09/02 00:25:07;;;;;;;6.28;2.50;;;;;;;;;;5074135;28;20024;-68
2023/09/02 00:27:33;;;;;;;6.13;1.90;;;;;;;;;;5072879;28;20020;-68
2023/09/02 00:29:59;;;;;;;3.03;2.40;;;;;;;;;;5074150;28;20385;-68
2023/09/02 00:32:25;;;;;;;3.47;2.78;;;;;;;;;;5073217;28;20017;-68
2023/09/02 00:34:51;;;;;;;4.22;2.63;;;;;;;;;;5082061;28;20032;-68
2023/09/02 00:37:17;;;;;;;4.97;2.15;;;;;;;;;;5083954;28;20048;-69
2023/09/02 00:39:43;;;;;;;2.35;2.00;;;;;;;;;;5085052;28;20028;-68
2023/09/02 00:42:10;;;;;;;2.13;1.70;;;;;;;;;;5088038;28;20041;-68
2023/09/02 00:44:36;;;;;;;2.65;1.88;;;;;;;;;;5089353;28;20032;-67
2023/09/02 00:47:02;;;;;;;1.77;1.67;;;;;;;;;;5085676;28;20021;-67
2023/09/02 00:49:29;;;;;;;3.42;1.90;;;;;;;;;;5075875;28;20027;-67
2023/09/02 00:51:55;;;;;;;4.13;2.08;;;;;;;;;;5075400;28;20031;-68
2023/09/02 00:54:21;;;;;;;3.60;1.70;;;;;;;;;;5072750;28;20103;-68
2023/09/02 00:56:47;;;;;;;4.38;2.00;;;;;;;;;;5073293;28;20094;-68
2023/09/02 00:59:13;;;;;;;2.78;2.42;;;;;;;;;;5072872;28;20016;-69
2023/09/02 01:01:40;;;;;;;3.08;2.05;;;;;;;;;;5073150;28;20051;-68
2023/09/02 01:04:07;;;;;;;3.97;2.00;;;;;;;;;;5072814;28;20029;-68
2023/09/02 01:06:34;;;;;;;4.82;2.30;;;;;;;;;;5072706;28;20211;-69
2023/09/02 01:09:00;;;;;;;2.75;1.70;;;;;;;;;;5072779;28;20035;-69
2023/09/02 01:11:27;;;;;;;3.08;1.90;;;;;;;;;;5072422;28;20035;-69
2023/09/02 01:13:53;;;;;;;2.05;1.85;;;;;;;;;;5072693;28;20025;-68
2023/09/02 01:16:19;;;;;;;2.40;2.10;;;;;;;;;;5071770;28;20033;-69
2023/09/02 01:18:45;;;;;;;4.80;2.13;;;;;;;;;;5072592;28;20054;-69
2023/09/02 01:21:15;;;;;;;1.95;1.75;;;;;;;;;;5072914;28;20028;-69
2023/09/02 01:23:41;;;;;;;2.15;1.63;;;;;;;;;;5071237;28;20656;-69
2023/09/02 01:26:30;;;;;;;3.20;2.17;;;;;;;;;;5072446;28;20055;-68
2023/09/02 01:29:02;;;;;;;2.00;1.80;;;;;;;;;;5072006;28;20500;-68
2023/09/02 01:31:30;;;;;;;3.97;1.90;;;;;;;;;;5054033;28;20025;-69
2023/09/02 01:33:56;;;;;;;4.28;2.15;;;;;;;;;;5072009;28;20016;-68
2023/09/02 01:36:23;;;;;;;3.13;2.20;;;;;;;;;;5071786;28;20032;-69
2023/09/02 01:38:51;;;;;;;5.10;2.20;;;;;;;;;;5072096;28;20047;-69
2023/09/02 01:41:19;;;;;;;3.85;2.65;;;;;;;;;;5053736;28;20111;-69
2023/09/02 01:43:46;;;;;;;3.83;2.53;;;;;;;;;;5072579;28;20539;-69
2023/09/02 01:46:12;;;;;;;2.63;2.05;;;;;;;;;;5072468;28;20078;-69
2023/09/02 01:48:38;;;;;;;2.97;1.98;;;;;;;;;;5053643;28;20021;-69
2023/09/02 01:51:04;;;;;;;5.22;2.03;;;;;;;;;;5072733;28;20457;-69
2023/09/02 01:53:31;;;;;;;4.55;2.03;;;;;;;;;;5071529;28;20046;-68
2023/09/02 01:55:57;;;;;;;6.97;2.10;;;;;;;;;;5071975;28;20122;-68
2023/09/02 01:58:24;;;;;;;3.65;2.30;;;;;;;;;;5071298;28;20017;-69
2023/09/02 02:00:50;;;;;;;3.53;1.80;;;;;;;;;;5072509;28;20032;-68
2023/09/02 02:03:30;;;;;;;3.17;2.50;;;;;;;;;;5071042;28;20466;-69
2023/09/02 02:05:58;;;;;;;5.70;2.08;;;;;;;;;;5072762;28;20020;-67
2023/09/02 02:08:47;;;;;;;5.88;2.22;;;;;;;;;;5066248;28;20137;-67
2023/09/02 02:11:14;;;;;;;3.90;1.95;;;;;;;;;;5073186;28;20157;-69
2023/09/02 02:13:40;;;;;;;3.45;2.83;;;;;;;;;;5070326;28;20024;-68
2023/09/02 02:16:06;;;;;;;3.45;2.13;;;;;;;;;;5052830;28;20028;-68
2023/09/02 02:18:32;;;;;;;3.05;2.05;;;;;;;;;;5069420;28;20082;-69
2023/09/02 02:21:00;;;;;;;2.67;2.13;;;;;;;;;;5070733;28;20032;-68
2023/09/02 02:23:26;;;;;;;2.60;2.10;;;;;;;;;;5067927;28;20455;-69
2023/09/02 02:25:52;;;;;;;3.90;2.47;;;;;;;;;;5069256;28;20028;-69
2023/09/02 02:28:18;;;;;;;3.60;2.30;;;;;;;;;;5069163;28;20029;-69
2023/09/02 02:30:44;;;;;;;3.88;2.50;;;14.60;99.90;;;;;;5070400;28;20359;-69
2023/09/02 02:33:09;;;;;;;4.32;2.38;;;14.60;99.90;;;;;;5070359;28;20082;-68
2023/09/02 02:35:35;;;;;;;2.78;2.47;;;14.50;99.90;;;;;;5070253;28;20063;-69
2023/09/02 02:38:01;;;;;;;3.60;2.58;;;14.40;99.90;;;;;;5069721;28;20078;-68
2023/09/02 02:40:27;;;;;;;6.72;2.63;;;14.40;99.90;;;;;;5069558;28;20035;-67
2023/09/02 02:42:53;;;;;;;3.50;2.50;;;;;;;;;;5069996;28;20347;-68
2023/09/02 02:45:19;;;;;;;6.15;2.78;;;;;;;;;;5070050;28;20024;-68
2023/09/02 02:47:45;;;;;;;2.70;2.38;;;;;;;;;;5070037;28;20024;-68
2023/09/02 02:50:11;;;;;;;6.18;2.67;;;;;;;;;;5070393;28;20049;-70
2023/09/02 02:52:38;;;;;;;5.00;2.85;;;;;;;;;;5068961;28;20119;-70
2023/09/02 02:55:04;;;;;;;7.13;2.78;;;;;;;;;;5049772;28;20033;-68
2023/09/02 02:57:30;;;;;;;4.38;2.60;;;;;;;;;;5049500;28;20028;-68
2023/09/02 02:59:56;;;;;;;4.15;3.00;;;;;;;;;;5050624;28;20470;-69
2023/09/02 03:02:44;;;;;;;3.33;2.30;;;;;;;;;;5089574;28;20039;-69
2023/09/02 03:05:26;;;;;;;3.58;2.35;;;;;;;;;;5090313;28;20436;-69
2023/09/02 03:08:00;;;;;;;5.57;2.50;;;;;;;;;;5089346;28;20069;-69
2023/09/02 03:10:33;;;;;;;4.25;2.85;;;;;;;;;;5089825;28;20040;-69
2023/09/02 03:12:59;;;;;;;2.83;2.42;;;;;;;;;;5089847;28;20027;-68
2023/09/02 03:15:25;;;;;;;4.00;2.60;;;14.20;99.90;;;;;;5089532;28;20024;-68
2023/09/02 03:17:51;;;;;;;3.22;2.45;;;14.00;99.90;;;;;;5089699;28;20050;-68
2023/09/02 03:20:16;;;;;;;6.30;2.60;;;14.00;99.90;;;;;;5089648;28;20016;-68
2023/09/02 03:22:42;;;;;;;3.40;2.70;;;13.90;99.90;;;;;;5089286;28;20024;-67
2023/09/02 03:25:08;;;;;;;3.85;2.70;;;13.90;99.90;;;;;;5069971;28;20040;-68
2023/09/02 03:27:40;;;;;;;8.48;2.75;;;13.80;99.90;;;;;;5068927;28;20106;-67
2023/09/02 03:30:07;;;;;;;3.63;2.60;;;13.80;99.90;;;;;;5069962;28;20093;-68
2023/09/02 03:32:33;;;;;;;4.63;3.17;;;13.80;99.90;;;;;;5068802;28;20132;-68
2023/09/02 03:34:59;;;;;;;3.20;2.50;;;13.80;99.90;;;;;;5069955;28;20029;-68
2023/09/02 03:37:26;;;;;;;3.47;2.80;;;13.80;99.90;;;;;;5068200;28;20082;-66
2023/09/02 03:39:53;;;;;;;4.45;3.15;;;13.70;99.90;;;;;;5074444;28;20028;-68
2023/09/02 03:42:19;;;;;;;3.85;2.80;;;13.70;99.90;;;;;;5075269;28;20373;-68
2023/09/02 03:44:44;;;;;;;5.43;2.92;;;13.70;99.90;;;;;;5071974;28;20036;-69
2023/09/02 03:47:10;;;;;;;4.57;3.50;;;13.70;99.90;;;;;;5074261;28;20051;-68
2023/09/02 03:49:36;;;;;;;3.67;2.92;;;13.70;99.90;;;;;;5076856;28;20024;-69
2023/09/02 03:52:01;;;;;;;5.55;3.53;;;13.80;99.90;;;;;;5056418;28;20017;-69
2023/09/02 03:54:27;;;;;;;5.93;3.65;;;13.90;99.90;;;;;;5077846;28;20103;-68
2023/09/02 03:56:52;;;;;;;4.85;3.38;;;13.90;99.90;;;;;;5073812;28;20127;-68
2023/09/02 03:59:19;;;;;;;6.35;3.33;;;13.90;99.90;;;;;;5073296;28;20373;-69
2023/09/02 04:01:45;;;;;;;6.70;3.67;;;14.00;99.90;;;;;;5071286;28;20025;-68
2023/09/02 04:04:10;;;;;;;4.63;3.30;;;14.00;99.90;;;;;;5073756;28;20032;-68
2023/09/02 04:06:37;;;;;;;8.68;3.25;;;14.00;99.90;;;;;;5073553;28;20527;-69
2023/09/02 04:09:05;;;;;;;6.60;3.15;;;14.00;99.90;;;;;;5073541;28;20060;-68
2023/09/02 04:11:31;;;;;;;4.35;2.88;;;13.90;99.90;;;;;;5073012;28;20460;-68
2023/09/02 04:13:56;;;;;;;5.40;3.40;;;13.90;99.90;;;;;;5073611;28;20023;-68
2023/09/02 04:16:22;;;;;;;5.50;2.78;;;13.80;99.90;;;;;;5073327;28;20080;-69
2023/09/02 04:18:48;;;;;;;5.35;3.10;;;13.80;99.90;;;;;;5073696;28;20100;-68
2023/09/02 04:21:14;;;;;;;3.22;2.92;;;13.80;99.90;;;;;;5073611;28;20480;-76
2023/09/02 04:23:41;;;;;;;4.60;3.28;;;13.70;99.90;;;;;;5073479;28;20033;-81
2023/09/02 04:26:07;;;;;;;3.90;3.53;;;13.70;99.90;;;;;;5074056;28;20021;-66
2023/09/02 04:28:32;;;;;;;6.57;3.72;;;13.70;99.90;;;;;;5074606;28;20369;-68
2023/09/02 04:30:59;;;;;;;6.60;3.53;;;13.70;99.90;;;;;;5073778;28;20029;-68
2023/09/02 04:33:25;;;;;;;3.83;3.42;;;13.70;99.90;;;;;;5072389;28;20035;-69
2023/09/02 04:35:50;;;;;;;7.88;3.65;;;13.70;99.90;;;;;;5073832;28;20024;-68
2023/09/02 04:38:16;;;;;;;6.05;3.45;;;13.70;99.90;;;;;;5079065;28;20032;-68
2023/09/02 04:40:44;;;;;;;5.38;3.42;;;13.70;99.90;;;;;;5067076;28;20102;-68
2023/09/02 04:43:12;;;;;;;5.13;3.40;;;13.70;99.90;;;;;;5072199;28;20206;-66
2023/09/02 04:45:39;;;;;;;4.40;2.90;;;13.70;99.90;;;;;;5071538;28;20025;-69
2023/09/02 04:48:06;;;;;;;4.43;3.58;;;13.70;99.90;;;;;;5068807;28;20033;-70
2023/09/02 04:50:32;;;;;;;3.28;2.97;;;13.60;99.90;;;;;;5069010;28;20044;-66
2023/09/02 04:52:59;;;;;;;13.57;3.35;;;13.60;99.90;;;;;;5071415;28;20099;-68
2023/09/02 04:55:25;;;;;;;3.25;2.95;;;13.60;99.90;;;;;;5070385;28;20047;-67
2023/09/02 04:57:52;;;;;;;3.60;2.70;;;13.60;99.90;;;;;;5076093;28;20040;-68
2023/09/02 05:00:18;;;;;;;5.80;3.22;;;13.60;99.90;;;;;;5070635;28;20394;-68
2023/09/02 05:02:47;;;;;;;5.43;2.85;;;13.60;99.90;;;;;;5071710;28;20031;-68
2023/09/02 05:05:17;;;;;;;3.30;3.00;;;13.50;99.90;;;;;;5070725;28;20025;-69
2023/09/02 05:07:43;;;;;;;4.45;3.65;;;13.50;99.90;;;;;;5071801;28;20454;-68
2023/09/02 05:10:09;;;;;;;7.97;3.50;;;13.50;99.90;;;;;;5071041;28;20027;-68
2023/09/02 05:12:34;;;;;;;4.13;3.33;;;13.60;99.90;;;;;;5070945;28;20103;-68
2023/09/02 05:15:00;;;;;;;10.23;3.92;;;13.60;99.90;;;;;;5071854;28;20020;-75
2023/09/02 05:17:26;;;;;;;5.65;3.92;;;13.60;99.90;;;;;;5069502;28;20107;-69
2023/09/02 05:19:52;;;;;;;6.90;3.30;;;13.70;99.90;;;;;;5071752;28;20442;-68
2023/09/02 05:22:17;;;;;;;4.15;3.38;;;13.70;99.90;;;;;;5069635;28;20509;-70
2023/09/02 05:24:43;;;;;;;4.60;3.63;;;13.80;99.90;;;;;;5069207;28;20056;-68
2023/09/02 05:27:09;;;;;;;5.38;3.35;;;13.80;99.90;;;;;;5075325;28;20025;-69
2023/09/02 05:29:34;;;;;;;3.65;3.15;;;13.90;99.90;;;;;;5070196;28;20029;-67
2023/09/02 05:32:00;;;;;;;4.05;3.47;;;14.00;99.90;;;;;;5071086;28;20085;-68
2023/09/02 05:34:25;;;;;;;4.68;3.28;;;14.10;99.90;;;;;;5069586;28;20020;-68
2023/09/02 05:36:51;;;;;;;8.15;3.90;;;14.20;99.90;;;;;;5070778;28;20064;-68
2023/09/02 05:39:17;;;;;;;6.45;3.60;;;14.30;99.90;;;;;;5072578;28;20170;-69
2023/09/02 05:41:44;;;;;;;4.63;3.20;;;14.30;99.90;;;;;;5070792;28;20020;-68
2023/09/02 05:44:10;;;;;;;5.53;3.45;;;14.40;99.90;;;;;;5052660;28;20029;-68
2023/09/02 05:46:36;;;;;;;4.32;3.22;;;14.50;99.90;;;;;;5069687;28;20173;-67
2023/09/02 05:49:01;;;;;;;3.15;2.85;;;14.60;99.90;;;;;;5070738;28;20028;-67
2023/09/02 05:51:28;;;;;;;3.33;2.97;;;14.70;99.90;;;;;;5069508;28;20052;-68
2023/09/02 05:53:54;;;;;;;4.50;3.33;;;14.80;99.90;;;;;;5069926;28;20025;-68
2023/09/02 05:56:19;;;;;;;6.03;3.33;;;14.90;99.90;;;;;;5069662;28;20057;-67
2023/09/02 05:58:45;;;;;;;9.48;3.35;;;15.00;99.90;;;;;;5070648;28;20029;-68
2023/09/02 06:01:11;;;;;;;6.03;3.45;;;15.10;99.90;;;;;;5070174;28;20036;-68
2023/09/02 06:03:36;;;;;;;4.45;3.05;;;15.20;99.90;;;;;;5069813;28;20487;-67
2023/09/02 06:06:09;;;;;;;5.45;3.50;;;15.30;99.90;;;;;;5071314;28;20081;-68
2023/09/02 06:08:35;;;;;;;7.88;3.70;;;15.40;99.90;;;;;;5051167;28;20779;-68
2023/09/02 06:11:00;;;;;;;5.32;3.53;;;15.40;99.90;;;;;;5070593;28;20111;-68
2023/09/02 06:13:26;;;;;;;3.72;3.20;;;15.50;99.90;;;;;;5069488;28;20024;-68
2023/09/02 06:15:56;;;;;;;4.78;3.63;;;15.60;99.90;;;;;;5071333;28;20462;-68
2023/09/02 06:18:22;;;;;;;6.60;3.75;;;15.70;99.90;;;;;;5068915;28;20082;-68
2023/09/02 06:20:47;;;;;;;4.40;3.50;;;15.80;99.90;;;;;;5071560;28;20028;-68
2023/09/02 06:23:13;;;;;;;3.90;3.30;;;15.90;99.90;;;;;;5069309;28;20024;-69
2023/09/02 06:25:38;;;;;;;6.50;3.92;;;16.00;99.90;;;;;;5069993;28;20035;-68
2023/09/02 06:28:04;;;;;;;5.47;4.22;;;16.10;99.90;;;;;;5070155;28;20047;-69
2023/09/02 06:30:30;;;;;;;4.95;4.22;;;16.20;99.90;;;;;;5069687;28;20047;-68
2023/09/02 06:32:56;;;;;;;6.35;4.10;;;16.30;99.90;;;;;;5070414;28;20033;-68
2023/09/02 06:35:21;;;;;;;5.75;4.47;;;16.50;99.90;;;;;;5069747;28;20032;-68
2023/09/02 06:37:49;;;;;;;6.15;4.03;;;16.60;99.90;;;;;;5078616;28;20032;-68
2023/09/02 06:40:15;;;;;;;4.47;3.35;;;16.70;99.90;;;;;;5088036;28;20082;-70
2023/09/02 06:42:40;;;;;;;6.03;3.30;;;16.80;99.90;;;;;;5092223;28;20024;-67
2023/09/02 06:45:07;;;;;;;6.00;3.55;;;17.00;99.90;;;;;;5092544;28;20401;-68
2023/09/02 06:47:32;;;;;;;4.15;3.05;;;17.00;99.90;;;;;;5091285;28;20711;-68
2023/09/02 06:49:58;;;;;;;6.82;3.83;;;17.20;99.90;;;;;;5074265;28;20107;-68
2023/09/02 06:52:24;;;;;;;4.20;2.92;;;17.30;99.90;;;;;;5090900;28;20035;-67
2023/09/02 06:54:50;;;;;;;4.70;3.15;;;17.40;99.90;;;;;;5091696;28;20322;-69
2023/09/02 06:57:16;;;;;;;4.40;3.30;;;17.60;99.90;;;;;;5090711;28;20062;-72
2023/09/02 06:59:41;;;;;;;5.90;3.60;;;17.70;99.90;;;;;;5091603;28;20126;-71
2023/09/02 07:02:08;;;;;;;4.63;3.20;;;17.80;99.90;;;;;;5092095;28;20462;-72
2023/09/02 07:04:33;;;;;;;5.00;3.28;;;17.80;99.90;;;;;;5080239;28;20082;-69
2023/09/02 07:06:59;;;;;;;3.33;2.90;;;17.90;99.90;;;;;;5072072;28;20040;-74
2023/09/02 07:09:26;;;;;;;5.30;3.00;;;18.00;99.90;;;;;;5070922;28;20108;-72
2023/09/02 07:11:52;;;;;;;6.18;3.20;;;18.10;99.90;;;;;;5073212;28;20029;-72
2023/09/02 07:14:18;;;;;;;5.03;2.50;;;18.30;99.90;;;;;;5075332;28;20029;-72
2023/09/02 07:16:44;;;;;;;8.88;2.70;;;18.40;99.90;;;;;;5076143;28;20020;-73
2023/09/02 07:19:09;;;;;;;3.60;2.60;;;18.50;99.90;;;;;;5076835;28;20028;-75
2023/09/02 07:21:35;;;;;;;4.25;3.10;;;18.60;99.90;;;;;;5077185;28;20016;-73
2023/09/02 07:24:00;;;;;;;2.80;2.47;;;18.70;99.90;;;;;;5093522;28;20020;-74
2023/09/02 07:26:28;;;;;;;5.70;2.75;;;18.80;99.90;;;;;;5096635;28;20082;-70
2023/09/02 07:28:54;;;;;;;5.63;2.60;;;19.00;99.90;;;;;;5097415;28;20063;-72
2023/09/02 07:31:20;;;;;;;4.40;3.03;;;19.00;99.90;;;;;;5097727;28;20126;-74
2023/09/02 07:33:46;;;;;;;13.00;2.30;;;19.10;99.90;;;;;;5096993;28;20038;-74
2023/09/02 07:36:13;;;;;;;7.50;3.35;;;19.30;99.90;;;;;;5083931;28;20025;-72
2023/09/02 07:38:40;;;;;;;4.70;2.90;;;19.50;99.90;;;;;;5074717;28;20036;-67
2023/09/02 07:41:06;;;;;;;2.58;2.20;;;19.70;99.90;;;;;;5075854;28;20059;-67
2023/09/02 07:43:32;;;;;;;2.72;2.30;;;19.90;99.90;;;;;;5074284;28;20205;-69
2023/09/02 07:45:58;;;;;;;4.03;2.25;;;19.90;99.90;;;;;;5075483;28;20032;-76
2023/09/02 07:48:24;;;;;;;3.15;2.53;;;20.00;99.90;;;;;;5074592;28;20036;-77
2023/09/02 07:50:50;;;;;;;2.20;2.00;;;20.20;99.90;;;;;;5075419;28;20078;-76
2023/09/02 07:53:15;;;;;;;5.20;2.40;;;20.20;99.90;;;;;;5074111;28;20504;-76
2023/09/02 07:55:41;;;;;;;4.28;2.40;;;20.30;99.90;;;;;;5075049;28;20078;-74
2023/09/02 07:58:07;;;;;;;6.20;2.80;;;20.40;99.90;;;;;;5070259;28;20386;-74
2023/09/02 08:00:34;;;;;;;4.75;2.33;;;20.50;99.90;;;;;;5074320;28;20540;-70
2023/09/02 08:03:00;;;;;;;4.95;2.47;;;20.50;99.90;;;;;;5075060;28;20040;-74
2023/09/02 08:05:25;;;;;;;3.70;2.35;;;20.60;99.90;;;;;;5074293;28;20024;-74
2023/09/02 08:07:51;;;;;;;3.25;2.38;;;20.60;99.90;;;;;;5068685;28;20048;-74
2023/09/02 08:10:17;;;;;;;2.50;2.30;;;20.70;99.90;;;;;;5073089;28;20538;-75
2023/09/02 08:12:42;;;;;;;3.63;2.50;;;20.80;99.90;;;;;;5073722;28;20028;-74
2023/09/02 08:15:11;;;;;;;3.17;2.58;;;20.90;99.90;;;;;;5073399;28;20028;-74
2023/09/02 08:17:38;;;;;;;3.33;2.30;;;21.00;99.90;;;;;;5066691;28;20028;-74
2023/09/02 08:20:05;;;;;;;4.88;2.47;;;21.10;99.90;;;;;;5068359;28;20499;-75
2023/09/02 08:22:30;;;;;;;4.50;2.55;;;21.40;99.90;;;;;;5065850;28;20037;-74
2023/09/02 08:24:56;;;;;;;3.28;2.58;;;21.60;99.90;;;;;;5072650;28;20059;-75
2023/09/02 08:27:22;;;;;;;2.53;2.22;;;21.70;99.90;;;;;;5062653;28;20083;-73
2023/09/02 08:29:47;;;;;;;6.30;2.58;;;21.80;99.90;;;;;;5069623;28;20029;-72
2023/09/02 08:32:13;;;;;;;4.43;2.78;;;21.90;99.90;;;;;;5072544;28;20025;-73
2023/09/02 08:34:38;;;;;;;7.60;3.30;;;21.90;99.90;;;;;;5068797;28;20393;-72
2023/09/02 08:37:04;;;;;;;4.10;3.10;;;22.00;99.90;;;;;;5068679;28;20039;-73
2023/09/02 08:39:30;;;;;;;3.85;3.13;;;22.00;99.90;;;;;;5072030;28;20067;-72
2023/09/02 08:41:56;;;;;;;5.15;3.13;;;22.10;99.90;;;;;;5072353;28;20480;-74
2023/09/02 08:44:25;;;;;;;3.42;2.95;;;22.10;99.90;;;;;;5071252;28;20532;-73
2023/09/02 08:46:52;;;;;;;4.13;3.13;;;22.10;99.90;;;;;;5072257;28;20037;-75
2023/09/02 08:49:18;;;;;;;3.13;2.83;;;22.20;99.90;;;;;;5071444;28;20082;-76
2023/09/02 08:51:45;;;;;;;6.00;3.47;;;22.30;99.90;;;;;;5072069;28;20059;-73
2023/09/02 08:54:12;;;;;;;3.80;3.20;;;22.40;99.90;;;;;;5071153;28;20036;-73
2023/09/02 08:56:41;;;;;;;5.38;2.88;;;22.60;99.90;;;;;;5071689;28;20044;-72
2023/09/02 08:59:10;;;;;;;2.60;2.40;;;22.70;99.90;;;;;;5071550;28;20458;-74
2023/09/02 09:01:42;;;;;;;2.92;2.38;;;22.70;99.90;;;;;;5071804;28;20138;-73
2023/09/02 09:04:08;;;;;;;3.20;2.33;;;22.80;99.90;;;;;;5071889;28;20081;-73
2023/09/02 09:06:36;;;;;;;5.93;2.42;;;22.90;99.90;;;;;;5071036;28;20575;-73
2023/09/02 09:09:02;;;;;;;3.95;2.53;;;23.00;99.90;;;;;;5063301;28;20119;-73
2023/09/02 09:11:31;;;;;;;5.00;2.55;;;23.20;99.90;;;;;;5071461;28;20119;-73
2023/09/02 09:14:01;;;;;;;2.83;2.45;;;23.30;99.90;;;;;;5071261;28;20021;-73
2023/09/02 09:16:31;;;;;;;3.47;2.88;;;23.30;99.90;;;;;;5070836;28;20040;-73
2023/09/02 09:18:57;;;;;;;5.43;2.50;;;23.40;99.90;;;;;;5071147;28;20029;-73
2023/09/02 09:21:23;;;;;;;3.90;2.58;;;23.60;99.90;;;;;;5070781;28;20044;-73
2023/09/02 09:23:52;;;;;;;4.68;2.88;;;23.80;99.90;;;;;;5071505;28;20021;-73
2023/09/02 09:26:19;;;;;;;6.15;2.55;;;;;;;;;;5070611;28;20078;-73
2023/09/02 09:28:50;;;;;;;5.57;2.53;;;;;;;;;;5071203;28;20039;-73
2023/09/02 09:31:17;;;;;;;3.92;2.20;;;24.00;99.90;;;;;;5070342;28;20115;-73
2023/09/02 09:33:50;;;;;;;5.53;2.75;;;24.20;99.90;;;;;;5071257;28;20032;-72
2023/09/02 09:36:17;;;;;;;2.92;2.20;;;24.40;99.90;;;;;;5069418;28;20077;-72
2023/09/02 09:38:42;;;;;;;6.93;2.72;;;24.40;99.90;;;;;;5071124;28;20039;-72
2023/09/02 09:41:08;;;;;;;3.38;2.10;;;24.40;99.90;;;;;;5070988;28;20032;-72
2023/09/02 09:43:34;;;;;;;7.00;2.25;;;24.60;99.90;;;;;;5070224;28;20108;-72
2023/09/02 09:46:00;;;;;;;3.42;2.67;;;24.80;99.90;;;;;;5070813;28;20024;-72
2023/09/02 09:48:25;;;;;;;4.95;2.25;;;24.90;99.90;;;;;;5069768;28;20032;-72
2023/09/02 09:50:51;;;;;;;3.22;2.08;;;24.90;99.90;;;;;;5070354;28;20367;-72
2023/09/02 09:53:17;;;;;;;3.20;2.40;;;24.90;99.90;;;;;;5069134;28;20113;-73
2023/09/02 09:55:45;;;;;;;4.55;2.22;;;;;;;;;;5070364;28;20493;-72
2023/09/02 09:58:12;;;;;;;4.25;2.25;;;;;;;;;;5070129;28;20615;-72
2023/09/02 10:00:37;;;;;;;3.92;2.00;;;;;;;;;;5070445;28;20017;-71
2023/09/02 10:03:04;;;;;;;4.35;2.15;;;;;;;;;;5070059;28;20412;-71
2023/09/02 10:05:31;;;;;;;2.85;2.30;;;;;;;;;;5070606;28;20442;-71
2023/09/02 10:08:01;;;;;;;2.63;1.67;;;;;;;;;;5068895;28;20035;-72
2023/09/02 10:10:29;;;;;;;3.35;2.13;;;25.90;99.90;;;;;;5070457;28;20027;-72
2023/09/02 10:12:57;;;;;;;4.10;2.08;;;25.90;99.90;;;;;;5069862;28;20495;-72
2023/09/02 10:15:26;;;;;;;2.40;2.03;;;26.10;99.90;;;;;;5070133;28;20040;-72
2023/09/02 10:18:00;;;;;;;5.28;2.17;;;26.20;99.90;;;;;;5070156;28;20028;-72
2023/09/02 10:20:31;;;;;;;4.18;2.33;;;26.30;99.90;;;;;;5069938;28;20063;-72
2023/09/02 10:23:05;;;;;;;2.92;1.70;;;26.40;99.90;;;;;;5069461;28;20029;-72
2023/09/02 10:26:02;;;;;;;2.55;1.67;;;26.40;99.90;;;;;;5069957;28;20066;-71
2023/09/02 10:28:38;;;;;;;3.53;1.90;;;26.40;99.90;;;;;;5069445;28;20024;-72
2023/09/02 10:31:13;;;;;;;2.25;1.70;;;26.50;99.90;;;;;;5070295;28;20047;-72
2023/09/02 10:33:45;;;;;;;3.40;2.15;;;26.70;99.90;;;;;;5069901;28;20163;-72
2023/09/02 10:36:16;;;;;;;4.13;1.63;;;26.80;99.90;;;;;;5069493;28;20073;-72
2023/09/02 10:38:44;;;;;;;3.05;1.58;;;26.90;99.90;;;;;;5070245;28;20119;-71
2023/09/02 10:41:14;;;;;;;1.65;1.55;;;27.00;99.90;;;;;;5070459;28;20087;-71
2023/09/02 10:43:41;;;;;;;4.47;1.77;;;27.20;99.90;;;;;;5069692;28;20050;-72
2023/09/02 10:46:10;;;;;;;3.58;1.88;;;27.40;99.90;;;;;;5069945;28;20412;-71
2023/09/02 10:48:39;;;;;;;3.13;1.80;;;27.50;99.90;;;;;;5069158;28;20846;-72
2023/09/02 10:51:06;;;;;;;2.65;1.90;;;27.60;99.90;;;;;;5069713;28;20040;-71
2023/09/02 10:53:55;;;;;;;3.65;1.80;;;27.70;99.90;;;;;;5069094;28;20029;-72
2023/09/02 10:56:25;;;;;;;1.83;1.63;;;27.70;99.90;;;;;;5069119;28;20045;-71
2023/09/02 10:58:52;;;;;;;2.38;1.77;;;27.70;99.90;;;;;;5069104;28;20562;-72
2023/09/02 11:01:18;;;;;;;3.58;1.80;;;27.90;99.90;;;;;;5069249;28;20103;-72
2023/09/02 11:03:47;;;;;;;3.28;1.67;;;28.10;99.50;;;;;;5070005;28;20102;-72
2023/09/02 11:06:15;;;;;;;3.10;1.73;;;28.30;98.80;;;;;;5069271;28;20021;-73
2023/09/02 11:08:44;;;;;;;3.78;2.15;;;28.20;98.90;;;;;;5069382;28;20115;-70
2023/09/02 11:11:10;;;;;;;9.43;3.85;;;28.10;98.60;;;;;;5069700;28;20021;-70
2023/09/02 11:14:07;;;;;;;8.18;1.90;;;27.80;98.70;;;;;;5068992;28;20056;-69
2023/09/02 11:16:40;;;;;;;2.80;1.85;;;27.70;98.80;;;;;;5069940;28;20056;-72
2023/09/02 11:19:09;;;;;;;6.43;3.50;;;27.90;98.80;;;;;;5069294;28;20025;-73
2023/09/02 11:21:43;;;;;;;4.10;2.05;;;28.10;98.90;;;;;;5068545;28;20108;-71
2023/09/02 11:24:20;;;;;;;3.45;2.40;;;28.60;98.00;;;;;;5068562;28;20027;-72
2023/09/02 11:27:00;;;;;;;6.20;2.00;;;29.00;97.20;;;;;;5070227;28;20016;-71
2023/09/02 11:29:28;;;;;;;3.75;1.90;;;29.10;96.30;;;;;;5068539;28;20173;-73
2023/09/02 11:32:04;;;;;;;2.30;1.55;;;28.90;96.40;;;;;;5069848;28;20508;-72
2023/09/02 11:34:30;;;;;;;3.50;1.58;;;29.00;96.20;;;;;;5069408;28;20472;-73
2023/09/02 11:36:57;;;;;;;3.45;1.65;;;29.00;96.20;;;;;;5069311;28;20048;-72
2023/09/02 11:39:30;;;;;;;2.42;2.00;;;29.00;95.50;;;;;;5068875;28;20103;-73
2023/09/02 11:42:10;;;;;;;1.95;1.75;;;28.90;95.70;;;;;;5069510;28;20070;-68
2023/09/02 11:44:36;;;;;;;3.15;1.80;;;28.90;95.80;;;;;;5068274;28;20052;-68
2023/09/02 11:47:02;;;;;;;4.75;2.38;;;28.80;95.60;;;;;;5069192;28;20067;-71
2023/09/02 11:49:28;;;;;;;2.03;1.65;;;28.70;95.70;;;;;;5068465;28;20037;-68
2023/09/02 11:51:54;;;;;;;3.22;1.60;;;;;;;;;;5061068;28;20013;-69
2023/09/02 11:54:20;;;;;;;2.63;1.58;;;;;;;;;;5065621;28;20024;-67
2023/09/02 11:56:57;;;;;;;2.28;1.98;;;;;;;;;;5050787;28;20401;-68
2023/09/02 11:59:23;;;;;;;3.53;1.83;;;;;;;;;;5069406;28;20091;-68
2023/09/02 12:02:08;;;;;;;2.80;1.67;;;;;;;;;;5070891;28;20855;-70
2023/09/02 12:04:38;;;;;;;2.40;1.73;;;29.50;99.90;;;;;;5070908;28;20020;-75
2023/09/02 12:07:05;;;;;;;3.50;1.75;;;29.50;94.30;;;;;;5072868;28;20430;-69
2023/09/02 12:09:31;;;;;;;2.45;2.10;;;29.80;93.90;;;;;;5072089;28;20029;-66
2023/09/02 12:11:57;;;;;;;2.15;1.90;;;30.30;93.00;;;;;;5072727;28;20044;-83
2023/09/02 12:14:23;;;;;;;2.53;2.03;;;30.80;92.50;;;;;;5072527;28;20098;-73
2023/09/02 12:16:49;;;;;;;3.15;1.70;;;30.80;91.80;;;;;;5071653;28;20457;-78
2023/09/02 12:19:15;;;;;;;2.15;1.60;;;30.60;92.40;;;;;;5071484;28;20035;-76
2023/09/02 12:21:42;;;;;;;3.63;1.77;;;30.70;98.60;;;;;;5073370;28;20070;-86
2023/09/02 12:24:08;;;;;;;1.73;1.63;;;;;;;;;;5072153;28;20025;-72
2023/09/02 12:26:45;;;;;;;4.63;1.70;;;;;;;;;;5071966;28;20020;-69
2023/09/02 12:29:21;;;;;;;4.00;1.88;;;;;;;;;;5071948;28;20051;-69
2023/09/02 12:31:57;;;;;;;3.10;1.90;;;;;;;;;;5072774;28;20021;-73
2023/09/02 12:34:23;;;;;;;2.13;2.03;;;;;;;;;;5071428;28;20115;-71
2023/09/02 12:36:49;;;;;;;3.83;1.92;;;;;;;;;;5072786;28;20035;-71
2023/09/02 12:39:22;;;;;;;2.63;1.70;;;;;;;;;;5071753;28;20242;-75
2023/09/02 12:41:48;;;;;;;3.05;1.90;;;;;;;;;;5073116;28;20075;-70
2023/09/02 12:44:18;;;;;;;3.42;1.90;;;;;;;;;;5072059;28;20047;-75
2023/09/02 12:46:44;;;;;;;2.40;1.85;;;;;;;;;;5072854;28;20020;-75
2023/09/02 12:49:10;;;;;;;3.85;2.10;;;;;;;;;;5071407;28;20595;-72
2023/09/02 12:51:39;;;;;;;2.38;2.10;;;;;;;;;;5072509;28;20032;-71
2023/09/02 12:54:12;;;;;;;2.03;1.67;;;;;;;;;;5071829;28;20017;-67
2023/09/02 12:56:39;;;;;;;2.00;1.85;;;;;;;;;;5071519;28;20068;-77
2023/09/02 12:59:05;;;;;;;3.28;2.25;;;;;;;;;;5071776;28;20482;-80
2023/09/02 13:01:31;;;;;;;3.75;2.47;;;;;;;;;;5072201;28;20032;-81
2023/09/02 13:04:00;;;;;;;4.57;2.22;;;;;;;;;;5070538;28;20475;-77
2023/09/02 13:06:27;;;;;;;1.70;1.50;;;;;;;;;;5070898;28;20020;-68
2023/09/02 13:08:54;;;;;;;2.47;2.25;;;;;;;;;;5071009;28;20505;-71
2023/09/02 13:11:21;;;;;;;5.75;2.00;;;;;;;;;;5071085;28;20029;-70
2023/09/02 13:13:47;;;;;;;3.53;2.03;;;;;;;;;;5071511;28;20103;-70
2023/09/02 13:16:13;;;;;;;2.28;2.08;;;;;;;;;;5071621;28;20162;-71
2023/09/02 13:18:39;;;;;;;2.33;2.13;;;;;;;;;;5071053;28;20024;-71
2023/09/02 13:21:05;;;;;;;5.30;2.10;;;;;;;;;;5071537;28;20514;-70
2023/09/02 13:23:31;;;;;;;2.45;1.98;;;;;;;;;;5070856;28;20021;-77